createdAt,value
2023-05-14T00:00:55.601Z,12.32
2023-05-14T00:03:22.319Z,9.50
2023-05-14T00:05:49.011Z,8.48
2023-05-14T00:08:15.808Z,9.35
2023-05-14T00:10:42.428Z,8.73
2023-05-14T00:13:09.116Z,11.98
2023-05-14T00:15:35.775Z,8.93
2023-05-14T00:18:02.536Z,11.82
2023-05-14T00:20:29.274Z,9.27
2023-05-14T00:22:56.430Z,9.45
2023-05-14T00:25:23.215Z,9.52
2023-05-14T00:27:49.864Z,9.60
2023-05-14T00:30:16.598Z,9.07
2023-05-14T00:32:43.376Z,8.95
2023-05-14T00:35:10.158Z,12.02
2023-05-14T00:37:37.371Z,11.02
2023-05-14T00:40:06.862Z,9.68
2023-05-14T00:42:33.633Z,12.18
2023-05-14T00:45:00.528Z,9.05
2023-05-14T00:47:27.391Z,9.60
2023-05-14T00:49:54.211Z,9.77
2023-05-14T00:52:21.089Z,8.63
2023-05-14T00:54:48.270Z,9.95
2023-05-14T00:57:15.001Z,12.10
2023-05-14T00:59:42.935Z,10.68
2023-05-14T01:02:11.235Z,9.60
2023-05-14T01:04:38.564Z,12.07
2023-05-14T01:07:21.312Z,11.13
2023-05-14T01:09:57.231Z,11.02
2023-05-14T01:12:45.693Z,10.70
2023-05-14T01:15:21.494Z,10.15
2023-05-14T01:17:59.944Z,10.48
2023-05-14T01:20:27.157Z,8.57
2023-05-14T01:22:53.810Z,11.27
2023-05-14T01:25:20.545Z,7.75
2023-05-14T01:28:06.950Z,10.15
2023-05-14T01:30:58.686Z,8.10
2023-05-14T01:33:26.529Z,8.15
2023-05-14T01:35:54.300Z,7.80
2023-05-14T01:38:21.957Z,7.72
2023-05-14T01:40:49.265Z,9.68
2023-05-14T01:43:16.394Z,7.97
2023-05-14T01:45:43.992Z,7.70
2023-05-14T01:48:10.934Z,9.60
2023-05-14T01:50:37.734Z,8.18
2023-05-14T01:53:04.395Z,8.20
2023-05-14T01:55:31.057Z,7.43
2023-05-14T01:57:57.742Z,9.13
2023-05-14T02:00:27.312Z,8.25
2023-05-14T02:02:54.324Z,10.18
2023-05-14T02:05:21.201Z,10.88
2023-05-14T02:07:47.929Z,14.70
2023-05-14T02:10:14.647Z,15.35
2023-05-14T02:12:41.334Z,13.32
2023-05-14T02:15:11.017Z,14.65
2023-05-14T02:17:37.941Z,15.07
2023-05-14T02:20:05.244Z,17.65
2023-05-14T02:22:32.078Z,15.50
2023-05-14T02:24:58.855Z,14.48
2023-05-14T02:27:25.640Z,16.02
2023-05-14T02:29:52.965Z,16.05
2023-05-14T02:32:19.733Z,13.52
2023-05-14T02:34:46.457Z,12.05
2023-05-14T02:37:13.198Z,15.05
2023-05-14T02:39:39.840Z,13.55
2023-05-14T02:42:07.099Z,15.15
2023-05-14T02:44:33.805Z,12.70
2023-05-14T02:47:00.656Z,16.58
2023-05-14T02:49:27.390Z,13.52
2023-05-14T02:51:54.560Z,12.63
2023-05-14T02:54:21.293Z,17.55
2023-05-14T02:56:47.969Z,14.52
2023-05-14T02:59:14.657Z,17.27
2023-05-14T03:01:41.892Z,14.15
2023-05-14T03:04:08.986Z,13.50
2023-05-14T03:06:35.722Z,13.95
2023-05-14T03:09:02.422Z,15.05
2023-05-14T03:11:29.093Z,13.98
2023-05-14T03:13:55.849Z,16.35
2023-05-14T03:16:22.837Z,14.82
2023-05-14T03:18:49.556Z,15.70
2023-05-14T03:21:16.356Z,18.10
2023-05-14T03:23:43.034Z,16.38
2023-05-14T03:26:09.785Z,15.85
2023-05-14T03:28:36.414Z,17.15
2023-05-14T03:31:03.137Z,21.08
2023-05-14T03:33:29.852Z,20.45
2023-05-14T03:35:56.605Z,14.80
2023-05-14T03:38:23.278Z,17.42
2023-05-14T03:40:52.565Z,15.10
2023-05-14T03:45:45.857Z,18.92
2023-05-14T03:48:12.569Z,17.23
2023-05-14T03:50:39.340Z,16.92
2023-05-14T03:53:05.956Z,14.60
2023-05-14T03:55:32.629Z,16.88
2023-05-14T03:57:59.333Z,16.75
2023-05-14T04:00:26.451Z,18.23
2023-05-14T04:02:53.380Z,16.98
2023-05-14T04:05:20.339Z,18.70
2023-05-14T04:07:46.998Z,18.02
2023-05-14T04:10:14.204Z,19.25
2023-05-14T04:12:40.949Z,21.23
2023-05-14T04:15:08.335Z,22.80
2023-05-14T04:17:35.203Z,20.33
2023-05-14T04:20:02.056Z,19.85
2023-05-14T04:22:28.746Z,17.65
2023-05-14T04:24:55.443Z,18.33
2023-05-14T04:27:22.307Z,20.15
2023-05-14T04:29:49.754Z,20.23
2023-05-14T04:32:17.707Z,16.77
2023-05-14T04:34:44.563Z,17.48
2023-05-14T04:37:11.231Z,15.25
2023-05-14T04:39:38.372Z,17.42
2023-05-14T04:42:05.551Z,23.08
2023-05-14T04:44:33.420Z,22.45
2023-05-14T04:47:00.111Z,19.00
2023-05-14T04:49:27.121Z,17.38
2023-05-14T04:51:53.817Z,17.42
2023-05-14T04:54:20.830Z,17.15
2023-05-14T04:56:47.850Z,18.48
2023-05-14T04:59:14.529Z,17.52
2023-05-14T05:01:41.234Z,16.83
2023-05-14T05:04:08.174Z,14.20
2023-05-14T05:06:34.963Z,15.73
2023-05-14T05:09:02.257Z,13.32
2023-05-14T05:11:29.162Z,14.32
2023-05-14T05:13:55.994Z,14.20
2023-05-14T05:16:22.926Z,15.35
2023-05-14T05:18:49.763Z,14.15
2023-05-14T05:21:16.574Z,15.60
2023-05-14T05:23:43.246Z,14.90
2023-05-14T05:26:10.038Z,16.02
2023-05-14T05:28:36.730Z,16.45
2023-05-14T05:31:03.622Z,15.70
2023-05-14T05:33:30.393Z,13.57
2023-05-14T05:35:57.721Z,12.50
2023-05-14T05:38:24.494Z,9.60
2023-05-14T05:40:51.193Z,10.90
2023-05-14T05:43:18.090Z,10.77
2023-05-14T05:45:46.083Z,9.90
2023-05-14T05:48:12.812Z,9.77
2023-05-14T05:50:39.612Z,10.27
2023-05-14T05:53:06.360Z,9.25
2023-05-14T05:55:33.016Z,8.60
2023-05-14T05:57:59.673Z,8.75
2023-05-14T06:00:26.901Z,7.35
2023-05-14T06:02:53.797Z,14.75
2023-05-14T06:05:20.670Z,5.53
2023-05-14T06:07:47.443Z,5.20
2023-05-14T06:10:14.206Z,6.05
2023-05-14T06:12:40.918Z,6.03
2023-05-14T06:15:07.979Z,4.90
2023-05-14T06:17:34.799Z,6.63
2023-05-14T06:20:01.530Z,4.90
2023-05-14T06:22:28.203Z,5.35
2023-05-14T06:24:54.849Z,4.38
2023-05-14T06:27:21.482Z,4.43
2023-05-14T06:29:48.198Z,4.00
2023-05-14T06:32:18.059Z,4.65
2023-05-14T06:34:44.866Z,4.35
2023-05-14T06:37:11.631Z,3.60
2023-05-14T06:39:38.620Z,3.35
2023-05-14T06:42:05.870Z,3.80
2023-05-14T06:44:32.555Z,4.50
2023-05-14T06:46:59.273Z,3.92
2023-05-14T06:49:26.247Z,4.05
2023-05-14T06:51:53.881Z,3.47
2023-05-14T06:54:20.680Z,4.00
2023-05-14T06:56:47.435Z,3.97
2023-05-14T06:59:14.124Z,3.95
2023-05-14T07:01:41.174Z,3.03
2023-05-14T07:04:07.998Z,3.20
2023-05-14T07:06:35.895Z,3.35
2023-05-14T07:09:03.347Z,2.83
2023-05-14T07:11:30.310Z,2.65
2023-05-14T07:13:57.000Z,3.00
2023-05-14T07:16:23.728Z,3.72
2023-05-14T07:18:50.424Z,3.47
2023-05-14T07:21:17.175Z,2.85
2023-05-14T07:23:43.833Z,3.63
2023-05-14T07:26:10.823Z,2.67
2023-05-14T07:28:37.527Z,2.75
2023-05-14T07:31:09.269Z,2.67
2023-05-14T07:33:36.677Z,4.93
2023-05-14T07:36:03.549Z,2.85
2023-05-14T07:38:30.196Z,3.15
2023-05-14T07:40:56.890Z,2.25
2023-05-14T07:43:23.639Z,3.13
2023-05-14T07:45:50.367Z,2.92
2023-05-14T07:48:17.332Z,2.67
2023-05-14T07:50:44.075Z,3.30
2023-05-14T07:53:10.714Z,4.55
2023-05-14T07:55:37.351Z,2.67
2023-05-14T07:58:04.020Z,2.92
2023-05-14T08:00:30.818Z,2.72
2023-05-14T08:02:57.596Z,2.55
2023-05-14T08:05:24.490Z,3.05
2023-05-14T08:07:51.202Z,2.42
2023-05-14T08:10:17.902Z,2.33
2023-05-14T08:12:44.606Z,2.50
2023-05-14T08:15:11.449Z,2.95
2023-05-14T08:17:38.153Z,3.33
2023-05-14T08:20:06.769Z,3.53
2023-05-14T08:22:33.652Z,3.70
2023-05-14T08:25:01.357Z,4.72
2023-05-14T08:27:28.191Z,2.55
2023-05-14T08:29:54.874Z,2.13
2023-05-14T08:32:23.905Z,3.30
2023-05-14T08:34:51.840Z,1.80
2023-05-14T08:37:18.673Z,3.10
2023-05-14T08:39:45.325Z,4.38
2023-05-14T08:42:13.351Z,2.88
2023-05-14T08:44:48.233Z,2.90
2023-05-14T08:47:15.986Z,2.92
2023-05-14T08:49:44.667Z,2.53
2023-05-14T08:52:12.046Z,3.08
2023-05-14T08:54:40.187Z,1.70
2023-05-14T08:57:09.754Z,3.22
2023-05-14T08:59:36.633Z,2.65
2023-05-14T09:02:05.298Z,2.47
2023-05-14T09:04:32.834Z,3.05
2023-05-14T09:07:01.216Z,2.00
2023-05-14T09:09:28.028Z,2.22
2023-05-14T09:11:54.762Z,3.03
2023-05-14T09:14:22.671Z,3.10
2023-05-14T09:16:51.022Z,2.65
2023-05-14T09:19:19.514Z,3.03
2023-05-14T09:21:47.863Z,3.17
2023-05-14T09:24:21.528Z,2.92
2023-05-14T09:26:52.990Z,2.25
2023-05-14T09:29:20.023Z,3.50
2023-05-14T09:31:46.809Z,4.43
2023-05-14T09:34:27.214Z,3.47
2023-05-14T09:36:57.897Z,3.35
2023-05-14T09:39:26.477Z,3.50
2023-05-14T09:41:55.065Z,3.30
2023-05-14T09:44:22.549Z,3.40
2023-05-14T09:46:50.538Z,3.20
2023-05-14T09:49:17.296Z,3.25
2023-05-14T09:51:44.398Z,4.00
2023-05-14T09:54:11.067Z,3.63
2023-05-14T09:56:39.500Z,3.67
2023-05-14T09:59:06.265Z,3.47
2023-05-14T10:01:33.259Z,4.25
2023-05-14T10:04:00.713Z,5.53
2023-05-14T10:06:33.696Z,3.42
2023-05-14T10:09:05.884Z,3.03
2023-05-14T10:11:38.125Z,2.08
2023-05-14T10:14:08.578Z,2.88
2023-05-14T10:16:41.046Z,2.83
2023-05-14T10:19:09.963Z,2.65
2023-05-14T10:21:38.869Z,3.05
2023-05-14T10:24:06.575Z,2.53
2023-05-14T10:26:37.822Z,3.55
2023-05-14T10:29:04.776Z,3.67
2023-05-14T10:31:50.632Z,6.30
2023-05-14T10:34:37.818Z,2.90
2023-05-14T10:37:06.803Z,2.85
2023-05-14T10:39:54.897Z,7.20
2023-05-14T10:42:23.311Z,4.15
2023-05-14T10:45:01.766Z,2.60
2023-05-14T10:47:29.275Z,3.78
2023-05-14T10:49:57.883Z,3.42
2023-05-14T10:52:26.705Z,4.22
2023-05-14T10:54:55.376Z,8.20
2023-05-14T10:57:24.581Z,5.20
2023-05-14T10:59:55.710Z,4.03
2023-05-14T11:02:27.795Z,4.53
2023-05-14T11:05:03.671Z,3.72
2023-05-14T11:07:32.646Z,3.08
2023-05-14T11:10:04.805Z,3.05
2023-05-14T11:12:32.352Z,3.25
2023-05-14T11:15:02.294Z,3.90
2023-05-14T11:17:30.258Z,3.25
2023-05-14T11:19:57.417Z,3.42
2023-05-14T11:22:24.510Z,5.28
2023-05-14T11:24:51.263Z,7.47
2023-05-14T11:27:18.812Z,2.55
2023-05-14T11:29:46.649Z,4.35
2023-05-14T11:32:14.206Z,3.38
2023-05-14T11:34:41.621Z,3.80
2023-05-14T11:37:09.305Z,2.95
2023-05-14T11:39:37.512Z,3.55
2023-05-14T11:42:16.326Z,2.03
2023-05-14T11:44:44.631Z,3.45
2023-05-14T11:47:11.691Z,4.20
2023-05-14T11:49:38.578Z,3.95
2023-05-14T11:52:06.969Z,3.75
2023-05-14T11:54:34.465Z,2.30
2023-05-14T11:57:08.169Z,3.55
2023-05-14T11:59:34.923Z,7.70
2023-05-14T12:02:03.840Z,3.45
2023-05-14T12:04:31.386Z,4.78
2023-05-14T12:06:59.709Z,3.40
2023-05-14T12:09:26.774Z,3.47
2023-05-14T12:11:53.437Z,6.10
2023-05-14T12:14:22.520Z,4.68
2023-05-14T12:19:17.764Z,4.03
2023-05-14T12:21:46.061Z,4.10
2023-05-14T12:24:18.292Z,3.88
2023-05-14T12:26:49.224Z,8.95
2023-05-14T12:29:17.021Z,5.60
2023-05-14T12:31:48.298Z,5.35
2023-05-14T12:34:16.048Z,4.07
2023-05-14T12:36:43.276Z,8.88
2023-05-14T12:39:10.491Z,4.72
2023-05-14T12:41:37.321Z,6.38
2023-05-14T12:44:04.929Z,4.35
2023-05-14T12:46:33.104Z,4.72
2023-05-14T12:49:00.037Z,10.05
2023-05-14T12:51:26.921Z,3.75
2023-05-14T12:53:54.320Z,4.25
2023-05-14T12:56:21.548Z,2.53
2023-05-14T12:58:48.328Z,5.22
2023-05-14T13:01:15.289Z,4.43
2023-05-14T13:03:42.114Z,4.40
2023-05-14T13:06:11.989Z,3.95
2023-05-14T13:08:39.174Z,3.38
2023-05-14T13:11:06.859Z,2.70
2023-05-14T13:13:33.489Z,2.40
2023-05-14T13:16:01.015Z,3.95
2023-05-14T13:18:27.711Z,3.88
2023-05-14T13:20:54.472Z,6.25
2023-05-14T13:23:21.185Z,4.05
2023-05-14T13:25:49.940Z,4.38
2023-05-14T13:28:16.811Z,2.65
2023-05-14T13:31:04.302Z,3.33
2023-05-14T13:33:31.072Z,2.28
2023-05-14T13:35:57.730Z,3.70
2023-05-14T13:38:24.474Z,3.40
2023-05-14T13:40:51.144Z,3.25
2023-05-14T13:43:17.917Z,1.95
2023-05-14T13:45:44.557Z,3.25
2023-05-14T13:48:11.339Z,3.13
2023-05-14T13:50:38.097Z,4.00
2023-05-14T13:53:04.774Z,2.22
2023-05-14T13:55:31.572Z,2.45
2023-05-14T13:57:59.452Z,3.55
2023-05-14T14:00:27.192Z,3.85
2023-05-14T14:02:53.903Z,3.65
2023-05-14T14:05:20.883Z,3.50
2023-05-14T14:07:47.665Z,3.63
2023-05-14T14:10:16.410Z,3.50
2023-05-14T14:12:43.106Z,3.35
2023-05-14T14:15:10.357Z,3.20
2023-05-14T14:17:37.668Z,2.38
2023-05-14T14:20:06.082Z,4.32
2023-05-14T14:22:33.182Z,3.28
2023-05-14T14:24:59.873Z,3.45
2023-05-14T14:27:26.836Z,4.15
2023-05-14T14:29:53.555Z,4.65
2023-05-14T14:32:20.603Z,4.47
2023-05-14T14:34:47.450Z,3.97
2023-05-14T14:37:14.120Z,4.65
2023-05-14T14:39:40.780Z,9.70
2023-05-14T14:42:07.536Z,3.25
2023-05-14T14:44:34.216Z,3.83
2023-05-14T14:47:00.851Z,5.03
2023-05-14T14:49:28.653Z,4.65
2023-05-14T14:51:55.379Z,4.20
2023-05-14T14:54:22.057Z,3.92
2023-05-14T14:56:52.380Z,3.83
2023-05-14T14:59:19.006Z,3.60
2023-05-14T15:01:45.930Z,3.10
2023-05-14T15:04:12.864Z,4.47
2023-05-14T15:06:39.581Z,3.67
2023-05-14T15:09:06.271Z,4.20
2023-05-14T15:11:33.501Z,4.10
2023-05-14T15:14:01.163Z,4.72
2023-05-14T15:16:28.016Z,3.90
2023-05-14T15:18:54.798Z,6.25
2023-05-14T15:21:21.549Z,3.60
2023-05-14T15:23:48.191Z,5.20
2023-05-14T15:26:14.912Z,3.70
2023-05-14T15:28:41.552Z,4.43
2023-05-14T15:31:08.320Z,5.13
2023-05-14T15:33:36.145Z,5.95
2023-05-14T15:36:02.881Z,4.90
2023-05-14T15:38:30.698Z,3.88
2023-05-14T15:40:57.394Z,4.85
2023-05-14T15:43:24.326Z,5.13
2023-05-14T15:45:50.981Z,8.07
2023-05-14T15:48:17.895Z,11.45
2023-05-14T15:50:44.903Z,4.45
2023-05-14T15:53:11.674Z,4.15
2023-05-14T15:55:38.378Z,3.38
2023-05-14T15:58:07.895Z,3.58
2023-05-14T16:00:34.646Z,5.45
2023-05-14T16:03:01.479Z,3.88
2023-05-14T16:05:28.327Z,4.57
2023-05-14T16:07:55.051Z,4.22
2023-05-14T16:10:22.046Z,5.30
2023-05-14T16:12:48.843Z,4.85
2023-05-14T16:15:15.528Z,4.90
2023-05-14T16:17:42.325Z,5.45
2023-05-14T16:20:09.682Z,5.28
2023-05-14T16:22:36.606Z,3.47
2023-05-14T16:25:04.866Z,4.80
2023-05-14T16:27:31.901Z,5.18
2023-05-14T16:29:58.571Z,4.80
2023-05-14T16:32:25.554Z,4.55
2023-05-14T16:34:53.778Z,5.40
2023-05-14T16:37:20.659Z,8.07
2023-05-14T16:39:47.910Z,12.35
2023-05-14T16:42:14.696Z,4.43
2023-05-14T16:44:41.359Z,6.15
2023-05-14T16:47:08.087Z,5.70
2023-05-14T16:49:34.733Z,5.63
2023-05-14T16:52:01.379Z,4.65
2023-05-14T16:54:28.053Z,6.82
2023-05-14T16:56:54.771Z,5.18
2023-05-14T16:59:21.477Z,5.10
2023-05-14T17:01:48.302Z,5.53
2023-05-14T17:04:15.273Z,6.15
2023-05-14T17:06:41.981Z,4.88
2023-05-14T17:09:08.741Z,5.70
2023-05-14T17:11:35.492Z,6.35
2023-05-14T17:14:02.150Z,5.60
2023-05-14T17:16:28.966Z,5.45
2023-05-14T17:18:55.649Z,3.55
2023-05-14T17:21:22.317Z,16.60
2023-05-14T17:23:48.960Z,6.03
2023-05-14T17:26:16.116Z,13.68
2023-05-14T17:28:42.758Z,6.65
2023-05-14T17:31:09.463Z,8.05
2023-05-14T17:33:36.231Z,5.25
2023-05-14T17:36:03.014Z,5.68
2023-05-14T17:38:29.761Z,5.25
2023-05-14T17:40:56.448Z,3.42
2023-05-14T17:43:23.161Z,4.55
2023-05-14T17:45:54.396Z,4.20
2023-05-14T17:48:22.925Z,4.32
2023-05-14T17:50:51.611Z,3.58
2023-05-14T17:53:18.350Z,4.38
2023-05-14T17:55:45.047Z,5.55
2023-05-14T17:58:13.620Z,6.15
2023-05-14T18:00:40.633Z,6.10
2023-05-14T18:03:08.060Z,5.93
2023-05-14T18:05:35.017Z,6.53
2023-05-14T18:08:01.772Z,5.22
2023-05-14T18:10:29.757Z,4.57
2023-05-14T18:12:56.753Z,5.50
2023-05-14T18:15:25.714Z,4.22
2023-05-14T18:20:19.781Z,6.60
2023-05-14T18:22:46.512Z,4.93
2023-05-14T18:25:13.715Z,5.22
2023-05-14T18:27:44.500Z,5.10
2023-05-14T18:30:15.631Z,5.30
2023-05-14T18:32:44.366Z,7.75
2023-05-14T18:35:12.066Z,5.22
2023-05-14T18:37:38.865Z,6.20
2023-05-14T18:40:07.061Z,6.13
2023-05-14T18:42:34.514Z,5.47
2023-05-14T18:45:01.564Z,4.65
2023-05-14T18:47:28.353Z,5.03
2023-05-14T18:49:57.768Z,5.70
2023-05-14T18:52:24.782Z,6.18
2023-05-14T18:54:51.436Z,5.30
2023-05-14T18:57:18.228Z,7.20
2023-05-14T18:59:44.924Z,7.90
2023-05-14T19:02:11.768Z,10.35
2023-05-14T19:04:50.582Z,5.55
2023-05-14T19:07:18.354Z,6.95
2023-05-14T19:09:45.605Z,6.32
2023-05-14T19:12:12.574Z,5.03
2023-05-14T19:14:39.311Z,6.20
2023-05-14T19:17:06.057Z,4.95
2023-05-14T19:19:32.861Z,6.43
2023-05-14T19:21:59.548Z,7.13
2023-05-14T19:24:26.210Z,5.43
2023-05-14T19:26:52.956Z,5.45
2023-05-14T19:29:19.603Z,6.68
2023-05-14T19:31:47.212Z,6.07
2023-05-14T19:34:13.984Z,8.13
2023-05-14T19:36:41.697Z,7.82
2023-05-14T19:39:08.391Z,7.53
2023-05-14T19:41:35.072Z,11.65
2023-05-14T19:44:01.749Z,5.90
2023-05-14T19:46:28.538Z,5.63
2023-05-14T19:48:55.308Z,7.30
2023-05-14T19:51:21.961Z,5.90
2023-05-14T19:54:07.555Z,7.07
2023-05-14T19:56:34.321Z,7.88
2023-05-14T19:59:01.022Z,5.47
2023-05-14T20:01:29.381Z,5.75
2023-05-14T20:03:56.030Z,7.65
2023-05-14T20:06:22.710Z,7.78
2023-05-14T20:08:49.510Z,7.47
2023-05-14T20:11:18.034Z,6.90
2023-05-14T20:13:44.737Z,7.55
2023-05-14T20:16:11.803Z,6.93
2023-05-14T20:18:38.530Z,7.00
2023-05-14T20:21:05.647Z,6.05
2023-05-14T20:23:32.420Z,6.25
2023-05-14T20:26:01.831Z,7.18
2023-05-14T20:28:28.679Z,6.10
2023-05-14T20:30:55.414Z,5.25
2023-05-14T20:33:22.127Z,7.60
2023-05-14T20:35:48.801Z,6.78
2023-05-14T20:38:18.374Z,6.75
2023-05-14T20:40:45.037Z,7.50
2023-05-14T20:43:11.715Z,7.78
2023-05-14T20:45:39.177Z,7.85
2023-05-14T20:48:12.595Z,6.32
2023-05-14T20:50:39.289Z,7.07
2023-05-14T20:53:06.468Z,7.47
2023-05-14T20:55:33.250Z,5.78
2023-05-14T20:57:59.932Z,8.15
2023-05-14T21:00:26.634Z,7.97
2023-05-14T21:02:53.481Z,7.07
2023-05-14T21:05:20.889Z,7.85
2023-05-14T21:07:47.669Z,7.55
2023-05-14T21:10:14.309Z,7.82
2023-05-14T21:12:42.644Z,6.13
2023-05-14T21:17:37.078Z,6.93
2023-05-14T21:20:04.062Z,6.70
2023-05-14T21:22:30.769Z,5.70
2023-05-14T21:24:57.444Z,5.82
2023-05-14T21:27:24.158Z,10.38
2023-05-14T21:29:50.813Z,5.45
2023-05-14T21:32:18.008Z,6.43
2023-05-14T21:34:44.698Z,6.25
2023-05-14T21:37:11.480Z,6.47
2023-05-14T21:39:38.178Z,5.93
2023-05-14T21:42:05.014Z,5.28
2023-05-14T21:44:31.626Z,6.15
2023-05-14T21:46:58.336Z,4.75
2023-05-14T21:49:25.007Z,4.85
2023-05-14T21:51:54.175Z,5.93
2023-05-14T21:56:47.713Z,5.97
2023-05-14T21:59:14.372Z,6.47
2023-05-14T22:01:56.091Z,6.38
2023-05-14T22:04:27.705Z,8.07
2023-05-14T22:06:54.359Z,6.15
2023-05-14T22:09:21.201Z,6.43
2023-05-14T22:11:47.852Z,7.05
2023-05-14T22:14:14.622Z,5.53
2023-05-14T22:16:41.372Z,8.88
2023-05-14T22:19:08.138Z,7.85
2023-05-14T22:21:34.891Z,9.23
2023-05-14T22:24:01.715Z,5.90
2023-05-14T22:26:28.344Z,5.95
2023-05-14T22:28:56.957Z,4.85
2023-05-14T22:31:23.653Z,7.10
2023-05-14T22:33:50.391Z,5.95
2023-05-14T22:36:17.059Z,7.25
2023-05-14T22:38:43.971Z,6.68
2023-05-14T22:41:10.972Z,6.55
2023-05-14T22:43:37.775Z,6.88
2023-05-14T22:46:04.762Z,6.28
2023-05-14T22:48:31.468Z,5.72
2023-05-14T22:50:58.139Z,6.45
2023-05-14T22:53:25.341Z,5.05
2023-05-14T22:55:52.195Z,5.72
2023-05-14T22:58:19.091Z,6.88
2023-05-14T23:00:45.912Z,5.03
2023-05-14T23:03:12.613Z,6.28
2023-05-14T23:05:39.294Z,6.32
2023-05-14T23:08:06.469Z,4.60
2023-05-14T23:10:35.352Z,5.10
2023-05-14T23:13:02.109Z,6.30
2023-05-14T23:15:28.837Z,6.30
2023-05-14T23:17:55.761Z,5.80
2023-05-14T23:20:22.493Z,6.68
2023-05-14T23:22:49.175Z,6.43
2023-05-14T23:25:15.998Z,5.65
2023-05-14T23:27:42.679Z,4.40
2023-05-14T23:30:10.027Z,7.13
2023-05-14T23:32:36.754Z,4.78
2023-05-14T23:35:03.699Z,4.30
2023-05-14T23:37:30.606Z,6.97
2023-05-14T23:39:57.225Z,5.22
2023-05-14T23:42:24.835Z,4.60
2023-05-14T23:44:51.462Z,5.22
2023-05-14T23:47:18.192Z,4.60
2023-05-14T23:49:44.844Z,4.93
2023-05-14T23:52:11.498Z,6.10
2023-05-14T23:54:38.932Z,6.15
2023-05-14T23:57:05.856Z,6.95
2023-05-14T23:59:32.557Z,7.10
